sensor_id;sensor_type;location;lat;lon;timestamp;P1;durP1;ratioP1;P2;durP2;ratioP2
16137;SDS011;8174;43.550;5.206;2022-10-16T00:01:30;7.93;;;5.57;;
16137;SDS011;8174;43.550;5.206;2022-10-16T00:03:58;9.88;;;5.88;;
16137;SDS011;8174;43.550;5.206;2022-10-16T00:06:26;9.20;;;6.23;;
16137;SDS011;8174;43.550;5.206;2022-10-16T00:08:54;8.03;;;5.67;;
16137;SDS011;8174;43.550;5.206;2022-10-16T00:11:22;11.80;;;6.27;;
16137;SDS011;8174;43.550;5.206;2022-10-16T00:13:54;9.93;;;6.10;;
16137;SDS011;8174;43.550;5.206;2022-10-16T00:16:22;12.17;;;5.90;;
16137;SDS011;8174;43.550;5.206;2022-10-16T00:18:49;7.77;;;5.73;;
16137;SDS011;8174;43.550;5.206;2022-10-16T00:21:18;9.65;;;6.28;;
16137;SDS011;8174;43.550;5.206;2022-10-16T00:23:46;9.77;;;6.10;;
16137;SDS011;8174;43.550;5.206;2022-10-16T00:26:14;8.65;;;6.43;;
16137;SDS011;8174;43.550;5.206;2022-10-16T00:28:42;8.30;;;5.83;;
16137;SDS011;8174;43.550;5.206;2022-10-16T00:31:12;11.00;;;6.10;;
16137;SDS011;8174;43.550;5.206;2022-10-16T00:33:40;10.02;;;5.68;;
16137;SDS011;8174;43.550;5.206;2022-10-16T00:36:09;8.93;;;6.10;;
16137;SDS011;8174;43.550;5.206;2022-10-16T00:38:37;9.40;;;6.20;;
16137;SDS011;8174;43.550;5.206;2022-10-16T00:41:04;10.82;;;6.60;;
16137;SDS011;8174;43.550;5.206;2022-10-16T00:43:33;8.57;;;6.27;;
16137;SDS011;8174;43.550;5.206;2022-10-16T00:46:02;9.03;;;6.20;;
16137;SDS011;8174;43.550;5.206;2022-10-16T00:48:31;7.60;;;6.27;;
16137;SDS011;8174;43.550;5.206;2022-10-16T00:50:59;10.17;;;6.13;;
16137;SDS011;8174;43.550;5.206;2022-10-16T00:53:27;9.10;;;6.10;;
16137;SDS011;8174;43.550;5.206;2022-10-16T00:55:58;8.60;;;6.50;;
16137;SDS011;8174;43.550;5.206;2022-10-16T00:58:25;7.10;;;5.90;;
16137;SDS011;8174;43.550;5.206;2022-10-16T01:00:53;8.25;;;5.85;;
16137;SDS011;8174;43.550;5.206;2022-10-16T01:03:25;9.27;;;6.10;;
16137;SDS011;8174;43.550;5.206;2022-10-16T01:05:57;8.13;;;5.70;;
16137;SDS011;8174;43.550;5.206;2022-10-16T01:08:27;9.43;;;5.60;;
16137;SDS011;8174;43.550;5.206;2022-10-16T01:10:57;9.88;;;5.88;;
16137;SDS011;8174;43.550;5.206;2022-10-16T01:13:27;7.15;;;5.30;;
16137;SDS011;8174;43.550;5.206;2022-10-16T01:16:02;9.63;;;5.90;;
16137;SDS011;8174;43.550;5.206;2022-10-16T01:18:34;8.13;;;5.90;;
16137;SDS011;8174;43.550;5.206;2022-10-16T01:21:24;10.30;;;5.50;;
16137;SDS011;8174;43.550;5.206;2022-10-16T01:23:57;7.25;;;5.35;;
16137;SDS011;8174;43.550;5.206;2022-10-16T01:26:31;8.83;;;5.90;;
16137;SDS011;8174;43.550;5.206;2022-10-16T01:29:07;9.32;;;5.53;;
16137;SDS011;8174;43.550;5.206;2022-10-16T01:31:36;8.60;;;4.97;;
16137;SDS011;8174;43.550;5.206;2022-10-16T01:34:05;8.25;;;6.10;;
16137;SDS011;8174;43.550;5.206;2022-10-16T01:36:35;8.00;;;5.83;;
16137;SDS011;8174;43.550;5.206;2022-10-16T01:39:04;9.60;;;5.70;;
16137;SDS011;8174;43.550;5.206;2022-10-16T01:41:33;13.13;;;6.30;;
16137;SDS011;8174;43.550;5.206;2022-10-16T01:44:04;10.43;;;5.83;;
16137;SDS011;8174;43.550;5.206;2022-10-16T01:46:34;8.65;;;5.78;;
16137;SDS011;8174;43.550;5.206;2022-10-16T01:49:03;6.90;;;5.80;;
16137;SDS011;8174;43.550;5.206;2022-10-16T01:51:31;9.30;;;6.20;;
16137;SDS011;8174;43.550;5.206;2022-10-16T01:54:00;9.40;;;6.17;;
16137;SDS011;8174;43.550;5.206;2022-10-16T01:56:28;9.63;;;6.63;;
16137;SDS011;8174;43.550;5.206;2022-10-16T01:58:57;9.07;;;6.57;;
16137;SDS011;8174;43.550;5.206;2022-10-16T02:01:25;10.23;;;6.00;;
16137;SDS011;8174;43.550;5.206;2022-10-16T02:03:55;7.97;;;6.10;;
16137;SDS011;8174;43.550;5.206;2022-10-16T02:06:24;8.00;;;6.13;;
16137;SDS011;8174;43.550;5.206;2022-10-16T02:08:51;10.73;;;7.00;;
16137;SDS011;8174;43.550;5.206;2022-10-16T02:11:20;9.60;;;6.97;;
16137;SDS011;8174;43.550;5.206;2022-10-16T02:13:48;11.57;;;6.20;;
16137;SDS011;8174;43.550;5.206;2022-10-16T02:16:17;8.37;;;6.40;;
16137;SDS011;8174;43.550;5.206;2022-10-16T02:18:44;11.37;;;6.70;;
16137;SDS011;8174;43.550;5.206;2022-10-16T02:21:16;10.17;;;7.27;;
16137;SDS011;8174;43.550;5.206;2022-10-16T02:23:45;12.57;;;7.27;;
16137;SDS011;8174;43.550;5.206;2022-10-16T02:26:17;10.33;;;6.60;;
16137;SDS011;8174;43.550;5.206;2022-10-16T02:28:46;12.70;;;7.10;;
16137;SDS011;8174;43.550;5.206;2022-10-16T02:31:18;10.50;;;6.93;;
16137;SDS011;8174;43.550;5.206;2022-10-16T02:33:47;9.60;;;7.27;;
16137;SDS011;8174;43.550;5.206;2022-10-16T02:36:16;10.07;;;6.87;;
16137;SDS011;8174;43.550;5.206;2022-10-16T02:38:43;11.43;;;7.30;;
16137;SDS011;8174;43.550;5.206;2022-10-16T02:41:11;8.93;;;6.83;;
16137;SDS011;8174;43.550;5.206;2022-10-16T02:43:39;11.10;;;6.97;;
16137;SDS011;8174;43.550;5.206;2022-10-16T02:46:06;8.60;;;7.00;;
16137;SDS011;8174;43.550;5.206;2022-10-16T02:48:34;9.00;;;6.70;;
16137;SDS011;8174;43.550;5.206;2022-10-16T02:51:02;10.97;;;6.53;;
16137;SDS011;8174;43.550;5.206;2022-10-16T02:53:31;9.20;;;6.70;;
16137;SDS011;8174;43.550;5.206;2022-10-16T02:55:58;11.37;;;7.00;;
16137;SDS011;8174;43.550;5.206;2022-10-16T02:58:26;8.00;;;6.87;;
16137;SDS011;8174;43.550;5.206;2022-10-16T03:00:54;8.57;;;6.10;;
16137;SDS011;8174;43.550;5.206;2022-10-16T03:03:22;13.23;;;7.00;;
16137;SDS011;8174;43.550;5.206;2022-10-16T03:05:49;9.20;;;6.17;;
16137;SDS011;8174;43.550;5.206;2022-10-16T03:08:17;8.17;;;6.10;;
16137;SDS011;8174;43.550;5.206;2022-10-16T03:10:50;9.33;;;6.17;;
16137;SDS011;8174;43.550;5.206;2022-10-16T03:13:17;9.93;;;6.10;;
16137;SDS011;8174;43.550;5.206;2022-10-16T03:15:46;11.63;;;6.00;;
16137;SDS011;8174;43.550;5.206;2022-10-16T03:18:14;7.57;;;5.90;;
16137;SDS011;8174;43.550;5.206;2022-10-16T03:20:42;7.77;;;5.47;;
16137;SDS011;8174;43.550;5.206;2022-10-16T03:23:27;8.83;;;5.47;;
16137;SDS011;8174;43.550;5.206;2022-10-16T03:25:56;8.60;;;5.80;;
16137;SDS011;8174;43.550;5.206;2022-10-16T03:28:24;7.63;;;5.30;;
16137;SDS011;8174;43.550;5.206;2022-10-16T03:30:51;6.97;;;5.50;;
16137;SDS011;8174;43.550;5.206;2022-10-16T03:33:19;10.10;;;5.90;;
16137;SDS011;8174;43.550;5.206;2022-10-16T03:35:50;6.53;;;5.20;;
16137;SDS011;8174;43.550;5.206;2022-10-16T03:38:19;8.90;;;5.60;;
16137;SDS011;8174;43.550;5.206;2022-10-16T03:40:46;6.27;;;5.63;;
16137;SDS011;8174;43.550;5.206;2022-10-16T03:43:15;5.97;;;5.20;;
16137;SDS011;8174;43.550;5.206;2022-10-16T03:45:43;7.63;;;5.53;;
16137;SDS011;8174;43.550;5.206;2022-10-16T03:48:10;6.87;;;5.00;;
16137;SDS011;8174;43.550;5.206;2022-10-16T03:50:38;6.93;;;5.63;;
16137;SDS011;8174;43.550;5.206;2022-10-16T03:53:06;7.93;;;4.80;;
16137;SDS011;8174;43.550;5.206;2022-10-16T03:55:34;7.00;;;5.20;;
16137;SDS011;8174;43.550;5.206;2022-10-16T03:58:01;8.43;;;4.90;;
16137;SDS011;8174;43.550;5.206;2022-10-16T04:00:30;6.63;;;4.73;;
16137;SDS011;8174;43.550;5.206;2022-10-16T04:02:58;6.43;;;4.93;;
16137;SDS011;8174;43.550;5.206;2022-10-16T04:05:26;8.68;;;4.93;;
16137;SDS011;8174;43.550;5.206;2022-10-16T04:07:53;7.80;;;5.57;;
16137;SDS011;8174;43.550;5.206;2022-10-16T04:10:21;8.50;;;4.47;;
16137;SDS011;8174;43.550;5.206;2022-10-16T04:12:49;7.25;;;4.38;;
16137;SDS011;8174;43.550;5.206;2022-10-16T04:15:16;8.90;;;4.80;;
16137;SDS011;8174;43.550;5.206;2022-10-16T04:17:45;6.47;;;4.20;;
16137;SDS011;8174;43.550;5.206;2022-10-16T04:20:13;5.97;;;4.10;;
16137;SDS011;8174;43.550;5.206;2022-10-16T04:22:40;5.40;;;3.83;;
16137;SDS011;8174;43.550;5.206;2022-10-16T04:25:08;8.07;;;4.27;;
16137;SDS011;8174;43.550;5.206;2022-10-16T04:27:36;7.28;;;4.00;;
16137;SDS011;8174;43.550;5.206;2022-10-16T04:30:04;6.03;;;4.20;;
16137;SDS011;8174;43.550;5.206;2022-10-16T04:32:32;6.13;;;4.47;;
16137;SDS011;8174;43.550;5.206;2022-10-16T04:35:01;7.23;;;4.23;;
16137;SDS011;8174;43.550;5.206;2022-10-16T04:37:28;10.43;;;4.13;;
16137;SDS011;8174;43.550;5.206;2022-10-16T04:39:56;6.40;;;4.50;;
16137;SDS011;8174;43.550;5.206;2022-10-16T04:42:24;5.38;;;4.47;;
16137;SDS011;8174;43.550;5.206;2022-10-16T04:44:51;8.60;;;4.63;;
16137;SDS011;8174;43.550;5.206;2022-10-16T04:47:19;5.63;;;4.40;;
16137;SDS011;8174;43.550;5.206;2022-10-16T04:49:46;6.67;;;4.17;;
16137;SDS011;8174;43.550;5.206;2022-10-16T04:52:15;5.87;;;4.10;;
16137;SDS011;8174;43.550;5.206;2022-10-16T04:54:44;4.70;;;3.83;;
16137;SDS011;8174;43.550;5.206;2022-10-16T04:57:11;7.47;;;5.43;;
16137;SDS011;8174;43.550;5.206;2022-10-16T04:59:39;7.10;;;4.47;;
16137;SDS011;8174;43.550;5.206;2022-10-16T05:02:07;8.50;;;4.80;;
16137;SDS011;8174;43.550;5.206;2022-10-16T05:04:34;9.00;;;4.75;;
16137;SDS011;8174;43.550;5.206;2022-10-16T05:07:02;6.55;;;4.88;;
16137;SDS011;8174;43.550;5.206;2022-10-16T05:12:00;5.75;;;4.30;;
16137;SDS011;8174;43.550;5.206;2022-10-16T05:14:28;4.93;;;4.13;;
16137;SDS011;8174;43.550;5.206;2022-10-16T05:17:13;5.50;;;4.23;;
16137;SDS011;8174;43.550;5.206;2022-10-16T05:19:41;6.07;;;4.10;;
16137;SDS011;8174;43.550;5.206;2022-10-16T05:22:26;7.35;;;4.20;;
16137;SDS011;8174;43.550;5.206;2022-10-16T05:24:54;5.80;;;3.93;;
16137;SDS011;8174;43.550;5.206;2022-10-16T05:27:23;6.97;;;4.30;;
16137;SDS011;8174;43.550;5.206;2022-10-16T05:29:51;5.67;;;4.10;;
16137;SDS011;8174;43.550;5.206;2022-10-16T05:32:18;6.88;;;4.10;;
16137;SDS011;8174;43.550;5.206;2022-10-16T05:34:46;7.63;;;4.07;;
16137;SDS011;8174;43.550;5.206;2022-10-16T05:37:13;6.77;;;4.40;;
16137;SDS011;8174;43.550;5.206;2022-10-16T05:39:41;5.97;;;4.47;;
16137;SDS011;8174;43.550;5.206;2022-10-16T05:42:08;7.83;;;4.67;;
16137;SDS011;8174;43.550;5.206;2022-10-16T05:44:37;5.30;;;4.33;;
16137;SDS011;8174;43.550;5.206;2022-10-16T05:47:05;5.57;;;4.30;;
16137;SDS011;8174;43.550;5.206;2022-10-16T05:49:32;6.77;;;4.33;;
16137;SDS011;8174;43.550;5.206;2022-10-16T05:52:00;5.60;;;4.40;;
16137;SDS011;8174;43.550;5.206;2022-10-16T05:54:28;8.47;;;4.63;;
16137;SDS011;8174;43.550;5.206;2022-10-16T05:56:55;7.10;;;4.73;;
16137;SDS011;8174;43.550;5.206;2022-10-16T05:59:23;7.63;;;4.80;;
16137;SDS011;8174;43.550;5.206;2022-10-16T06:01:52;10.13;;;4.83;;
16137;SDS011;8174;43.550;5.206;2022-10-16T06:04:19;7.15;;;5.05;;
16137;SDS011;8174;43.550;5.206;2022-10-16T06:06:47;8.80;;;5.20;;
16137;SDS011;8174;43.550;5.206;2022-10-16T06:09:14;7.05;;;5.22;;
16137;SDS011;8174;43.550;5.206;2022-10-16T06:11:42;7.53;;;5.00;;
16137;SDS011;8174;43.550;5.206;2022-10-16T06:14:13;7.28;;;5.38;;
16137;SDS011;8174;43.550;5.206;2022-10-16T06:16:40;9.20;;;5.33;;
16137;SDS011;8174;43.550;5.206;2022-10-16T06:19:09;7.60;;;5.43;;
16137;SDS011;8174;43.550;5.206;2022-10-16T06:21:38;7.83;;;5.50;;
16137;SDS011;8174;43.550;5.206;2022-10-16T06:24:06;9.15;;;5.70;;
16137;SDS011;8174;43.550;5.206;2022-10-16T06:26:33;9.20;;;5.50;;
16137;SDS011;8174;43.550;5.206;2022-10-16T06:29:01;9.23;;;5.17;;
16137;SDS011;8174;43.550;5.206;2022-10-16T06:31:29;9.30;;;5.65;;
16137;SDS011;8174;43.550;5.206;2022-10-16T06:33:59;9.23;;;5.70;;
16137;SDS011;8174;43.550;5.206;2022-10-16T06:36:28;9.10;;;6.10;;
16137;SDS011;8174;43.550;5.206;2022-10-16T06:38:55;8.47;;;5.93;;
16137;SDS011;8174;43.550;5.206;2022-10-16T06:41:23;10.90;;;6.73;;
16137;SDS011;8174;43.550;5.206;2022-10-16T06:43:51;12.02;;;7.47;;
16137;SDS011;8174;43.550;5.206;2022-10-16T06:46:20;10.70;;;7.83;;
16137;SDS011;8174;43.550;5.206;2022-10-16T06:48:49;32.33;;;21.70;;
16137;SDS011;8174;43.550;5.206;2022-10-16T06:51:17;19.00;;;10.27;;
16137;SDS011;8174;43.550;5.206;2022-10-16T06:53:47;13.00;;;8.27;;
16137;SDS011;8174;43.550;5.206;2022-10-16T06:56:16;12.33;;;7.70;;
16137;SDS011;8174;43.550;5.206;2022-10-16T06:58:44;12.10;;;7.60;;
16137;SDS011;8174;43.550;5.206;2022-10-16T07:01:11;22.47;;;11.10;;
16137;SDS011;8174;43.550;5.206;2022-10-16T07:03:41;10.55;;;7.07;;
16137;SDS011;8174;43.550;5.206;2022-10-16T07:06:11;10.43;;;6.77;;
16137;SDS011;8174;43.550;5.206;2022-10-16T07:08:40;16.13;;;9.20;;
16137;SDS011;8174;43.550;5.206;2022-10-16T07:11:10;12.57;;;7.50;;
16137;SDS011;8174;43.550;5.206;2022-10-16T07:13:38;7.85;;;6.78;;
16137;SDS011;8174;43.550;5.206;2022-10-16T07:16:06;9.40;;;6.03;;
16137;SDS011;8174;43.550;5.206;2022-10-16T07:18:34;9.23;;;5.90;;
16137;SDS011;8174;43.550;5.206;2022-10-16T07:21:04;8.98;;;6.60;;
16137;SDS011;8174;43.550;5.206;2022-10-16T07:23:32;12.18;;;6.22;;
16137;SDS011;8174;43.550;5.206;2022-10-16T07:25:59;8.00;;;6.25;;
16137;SDS011;8174;43.550;5.206;2022-10-16T07:28:28;14.82;;;9.18;;
16137;SDS011;8174;43.550;5.206;2022-10-16T07:30:59;12.75;;;8.82;;
16137;SDS011;8174;43.550;5.206;2022-10-16T07:33:27;50.22;;;26.85;;
16137;SDS011;8174;43.550;5.206;2022-10-16T07:35:55;87.45;;;45.33;;
16137;SDS011;8174;43.550;5.206;2022-10-16T07:38:22;148.50;;;71.00;;
16137;SDS011;8174;43.550;5.206;2022-10-16T07:40:55;116.20;;;57.22;;
16137;SDS011;8174;43.550;5.206;2022-10-16T07:43:23;22.25;;;13.85;;
16137;SDS011;8174;43.550;5.206;2022-10-16T07:45:52;14.40;;;9.73;;
16137;SDS011;8174;43.550;5.206;2022-10-16T07:48:20;23.90;;;14.93;;
16137;SDS011;8174;43.550;5.206;2022-10-16T07:50:48;13.52;;;8.32;;
16137;SDS011;8174;43.550;5.206;2022-10-16T07:53:15;10.45;;;6.80;;
16137;SDS011;8174;43.550;5.206;2022-10-16T07:55:43;11.40;;;7.90;;
16137;SDS011;8174;43.550;5.206;2022-10-16T07:58:11;9.40;;;6.95;;
16137;SDS011;8174;43.550;5.206;2022-10-16T08:00:38;8.73;;;6.78;;
16137;SDS011;8174;43.550;5.206;2022-10-16T08:03:08;10.98;;;7.78;;
16137;SDS011;8174;43.550;5.206;2022-10-16T08:05:35;9.38;;;6.10;;
16137;SDS011;8174;43.550;5.206;2022-10-16T08:08:05;9.77;;;6.70;;
16137;SDS011;8174;43.550;5.206;2022-10-16T08:10:32;10.68;;;7.10;;
16137;SDS011;8174;43.550;5.206;2022-10-16T08:13:00;9.15;;;5.88;;
16137;SDS011;8174;43.550;5.206;2022-10-16T08:15:27;11.40;;;7.18;;
16137;SDS011;8174;43.550;5.206;2022-10-16T08:17:55;10.88;;;7.28;;
16137;SDS011;8174;43.550;5.206;2022-10-16T08:20:26;10.57;;;6.15;;
16137;SDS011;8174;43.550;5.206;2022-10-16T08:22:54;10.43;;;6.05;;
16137;SDS011;8174;43.550;5.206;2022-10-16T08:25:21;8.35;;;6.13;;
16137;SDS011;8174;43.550;5.206;2022-10-16T08:27:49;8.55;;;5.97;;
16137;SDS011;8174;43.550;5.206;2022-10-16T08:30:17;9.93;;;6.85;;
16137;SDS011;8174;43.550;5.206;2022-10-16T08:32:45;11.20;;;7.88;;
16137;SDS011;8174;43.550;5.206;2022-10-16T08:35:12;8.10;;;5.85;;
16137;SDS011;8174;43.550;5.206;2022-10-16T08:37:43;12.27;;;5.40;;
16137;SDS011;8174;43.550;5.206;2022-10-16T08:40:13;7.43;;;5.25;;
16137;SDS011;8174;43.550;5.206;2022-10-16T08:42:47;7.72;;;5.53;;
16137;SDS011;8174;43.550;5.206;2022-10-16T08:45:26;10.50;;;5.55;;
16137;SDS011;8174;43.550;5.206;2022-10-16T08:48:00;9.93;;;5.05;;
16137;SDS011;8174;43.550;5.206;2022-10-16T08:50:31;9.73;;;5.05;;
16137;SDS011;8174;43.550;5.206;2022-10-16T08:53:00;10.02;;;5.22;;
16137;SDS011;8174;43.550;5.206;2022-10-16T08:55:32;7.63;;;5.03;;
16137;SDS011;8174;43.550;5.206;2022-10-16T08:58:02;8.35;;;5.55;;
16137;SDS011;8174;43.550;5.206;2022-10-16T09:00:36;8.15;;;4.55;;
16137;SDS011;8174;43.550;5.206;2022-10-16T09:03:06;8.30;;;5.15;;
16137;SDS011;8174;43.550;5.206;2022-10-16T09:05:49;8.75;;;4.85;;
16137;SDS011;8174;43.550;5.206;2022-10-16T09:08:22;23.25;;;5.40;;
16137;SDS011;8174;43.550;5.206;2022-10-16T09:10:54;8.13;;;4.80;;
16137;SDS011;8174;43.550;5.206;2022-10-16T09:13:26;9.13;;;5.00;;
16137;SDS011;8174;43.550;5.206;2022-10-16T09:15:55;5.63;;;4.47;;
16137;SDS011;8174;43.550;5.206;2022-10-16T09:18:27;10.35;;;4.95;;
16137;SDS011;8174;43.550;5.206;2022-10-16T09:20:58;10.15;;;4.90;;
16137;SDS011;8174;43.550;5.206;2022-10-16T09:23:28;8.02;;;4.85;;
16137;SDS011;8174;43.550;5.206;2022-10-16T09:25:56;8.13;;;5.10;;
16137;SDS011;8174;43.550;5.206;2022-10-16T09:28:25;8.60;;;5.15;;
16137;SDS011;8174;43.550;5.206;2022-10-16T09:30:53;8.23;;;4.82;;
16137;SDS011;8174;43.550;5.206;2022-10-16T09:33:21;7.00;;;4.97;;
16137;SDS011;8174;43.550;5.206;2022-10-16T09:35:50;7.85;;;5.10;;
16137;SDS011;8174;43.550;5.206;2022-10-16T09:38:21;6.00;;;5.13;;
16137;SDS011;8174;43.550;5.206;2022-10-16T09:40:50;7.20;;;5.15;;
16137;SDS011;8174;43.550;5.206;2022-10-16T09:43:22;6.88;;;5.28;;
16137;SDS011;8174;43.550;5.206;2022-10-16T09:45:56;8.50;;;5.00;;
16137;SDS011;8174;43.550;5.206;2022-10-16T09:48:25;8.95;;;5.00;;
16137;SDS011;8174;43.550;5.206;2022-10-16T09:50:56;5.68;;;4.43;;
16137;SDS011;8174;43.550;5.206;2022-10-16T09:53:23;7.05;;;4.65;;
16137;SDS011;8174;43.550;5.206;2022-10-16T09:55:54;7.22;;;4.78;;
16137;SDS011;8174;43.550;5.206;2022-10-16T09:58:22;6.38;;;4.45;;
16137;SDS011;8174;43.550;5.206;2022-10-16T10:00:51;9.93;;;6.22;;
16137;SDS011;8174;43.550;5.206;2022-10-16T10:03:25;8.30;;;5.13;;
16137;SDS011;8174;43.550;5.206;2022-10-16T10:05:57;9.10;;;5.85;;
16137;SDS011;8174;43.550;5.206;2022-10-16T10:08:25;7.80;;;4.72;;
16137;SDS011;8174;43.550;5.206;2022-10-16T10:10:54;12.20;;;4.75;;
16137;SDS011;8174;43.550;5.206;2022-10-16T10:13:22;9.90;;;4.70;;
16137;SDS011;8174;43.550;5.206;2022-10-16T10:15:52;9.73;;;4.80;;
16137;SDS011;8174;43.550;5.206;2022-10-16T10:18:21;7.55;;;4.20;;
16137;SDS011;8174;43.550;5.206;2022-10-16T10:20:58;6.65;;;4.20;;
16137;SDS011;8174;43.550;5.206;2022-10-16T10:23:27;8.20;;;4.22;;
16137;SDS011;8174;43.550;5.206;2022-10-16T10:25:57;7.47;;;4.68;;
16137;SDS011;8174;43.550;5.206;2022-10-16T10:28:37;6.45;;;3.90;;
16137;SDS011;8174;43.550;5.206;2022-10-16T10:31:09;8.75;;;4.70;;
16137;SDS011;8174;43.550;5.206;2022-10-16T10:33:41;6.68;;;4.03;;
16137;SDS011;8174;43.550;5.206;2022-10-16T10:36:19;9.27;;;4.15;;
16137;SDS011;8174;43.550;5.206;2022-10-16T10:38:50;6.05;;;4.00;;
16137;SDS011;8174;43.550;5.206;2022-10-16T10:44:03;12.02;;;5.25;;
16137;SDS011;8174;43.550;5.206;2022-10-16T10:46:35;10.30;;;4.38;;
16137;SDS011;8174;43.550;5.206;2022-10-16T10:49:06;6.18;;;4.07;;
16137;SDS011;8174;43.550;5.206;2022-10-16T10:51:36;41.78;;;37.22;;
16137;SDS011;8174;43.550;5.206;2022-10-16T10:54:10;5.93;;;3.65;;
16137;SDS011;8174;43.550;5.206;2022-10-16T10:56:45;5.50;;;3.80;;
16137;SDS011;8174;43.550;5.206;2022-10-16T11:01:58;9.32;;;4.15;;
16137;SDS011;8174;43.550;5.206;2022-10-16T11:04:33;6.07;;;4.32;;
16137;SDS011;8174;43.550;5.206;2022-10-16T11:07:07;4.72;;;4.07;;
16137;SDS011;8174;43.550;5.206;2022-10-16T11:09:36;7.00;;;4.32;;
16137;SDS011;8174;43.550;5.206;2022-10-16T11:12:06;6.30;;;3.95;;
16137;SDS011;8174;43.550;5.206;2022-10-16T11:14:38;7.32;;;4.32;;
16137;SDS011;8174;43.550;5.206;2022-10-16T11:17:10;6.93;;;3.80;;
16137;SDS011;8174;43.550;5.206;2022-10-16T11:19:39;6.93;;;3.92;;
16137;SDS011;8174;43.550;5.206;2022-10-16T11:22:11;6.03;;;3.92;;
16137;SDS011;8174;43.550;5.206;2022-10-16T11:24:42;6.88;;;3.70;;
16137;SDS011;8174;43.550;5.206;2022-10-16T11:27:12;9.77;;;3.88;;
16137;SDS011;8174;43.550;5.206;2022-10-16T11:29:43;6.40;;;3.47;;
16137;SDS011;8174;43.550;5.206;2022-10-16T11:32:15;5.75;;;3.13;;
16137;SDS011;8174;43.550;5.206;2022-10-16T11:34:47;5.72;;;3.35;;
16137;SDS011;8174;43.550;5.206;2022-10-16T11:37:17;6.07;;;2.70;;
16137;SDS011;8174;43.550;5.206;2022-10-16T11:39:46;6.93;;;3.20;;
16137;SDS011;8174;43.550;5.206;2022-10-16T11:42:16;6.45;;;3.10;;
16137;SDS011;8174;43.550;5.206;2022-10-16T11:44:48;7.40;;;2.95;;
16137;SDS011;8174;43.550;5.206;2022-10-16T11:47:29;6.15;;;2.90;;
16137;SDS011;8174;43.550;5.206;2022-10-16T11:49:59;4.97;;;2.58;;
16137;SDS011;8174;43.550;5.206;2022-10-16T11:52:29;7.30;;;3.03;;
16137;SDS011;8174;43.550;5.206;2022-10-16T11:54:59;3.70;;;2.65;;
16137;SDS011;8174;43.550;5.206;2022-10-16T11:57:29;6.20;;;2.80;;
16137;SDS011;8174;43.550;5.206;2022-10-16T11:59:59;5.25;;;2.50;;
16137;SDS011;8174;43.550;5.206;2022-10-16T12:02:32;4.78;;;2.38;;
16137;SDS011;8174;43.550;5.206;2022-10-16T12:05:09;4.15;;;2.45;;
16137;SDS011;8174;43.550;5.206;2022-10-16T12:07:39;5.95;;;2.85;;
16137;SDS011;8174;43.550;5.206;2022-10-16T12:10:18;4.57;;;2.30;;
16137;SDS011;8174;43.550;5.206;2022-10-16T12:12:46;4.60;;;2.50;;
16137;SDS011;8174;43.550;5.206;2022-10-16T12:15:20;5.63;;;2.80;;
16137;SDS011;8174;43.550;5.206;2022-10-16T12:17:50;6.00;;;2.50;;
16137;SDS011;8174;43.550;5.206;2022-10-16T12:20:20;4.50;;;2.30;;
16137;SDS011;8174;43.550;5.206;2022-10-16T12:22:49;6.43;;;2.40;;
16137;SDS011;8174;43.550;5.206;2022-10-16T12:25:20;4.85;;;2.40;;
16137;SDS011;8174;43.550;5.206;2022-10-16T12:27:53;6.22;;;2.72;;
16137;SDS011;8174;43.550;5.206;2022-10-16T12:30:22;7.40;;;2.67;;
16137;SDS011;8174;43.550;5.206;2022-10-16T12:32:54;5.72;;;2.80;;
16137;SDS011;8174;43.550;5.206;2022-10-16T12:35:23;6.22;;;2.50;;
16137;SDS011;8174;43.550;5.206;2022-10-16T12:37:51;6.28;;;2.55;;
16137;SDS011;8174;43.550;5.206;2022-10-16T12:40:26;4.05;;;2.78;;
16137;SDS011;8174;43.550;5.206;2022-10-16T12:42:53;5.03;;;2.78;;
16137;SDS011;8174;43.550;5.206;2022-10-16T12:45:26;4.70;;;2.60;;
16137;SDS011;8174;43.550;5.206;2022-10-16T12:47:55;7.13;;;2.90;;
16137;SDS011;8174;43.550;5.206;2022-10-16T12:50:25;5.05;;;2.50;;
16137;SDS011;8174;43.550;5.206;2022-10-16T12:52:52;4.93;;;2.58;;
16137;SDS011;8174;43.550;5.206;2022-10-16T12:55:20;4.38;;;2.17;;
16137;SDS011;8174;43.550;5.206;2022-10-16T12:57:57;4.13;;;2.38;;
16137;SDS011;8174;43.550;5.206;2022-10-16T13:00:28;5.90;;;2.60;;
16137;SDS011;8174;43.550;5.206;2022-10-16T13:03:04;8.60;;;2.58;;
16137;SDS011;8174;43.550;5.206;2022-10-16T13:05:46;6.68;;;2.22;;
16137;SDS011;8174;43.550;5.206;2022-10-16T13:08:23;4.47;;;2.42;;
16137;SDS011;8174;43.550;5.206;2022-10-16T13:10:55;5.30;;;2.45;;
16137;SDS011;8174;43.550;5.206;2022-10-16T13:13:35;5.75;;;2.58;;
16137;SDS011;8174;43.550;5.206;2022-10-16T13:16:12;4.00;;;2.75;;
16137;SDS011;8174;43.550;5.206;2022-10-16T13:18:45;5.13;;;2.60;;
16137;SDS011;8174;43.550;5.206;2022-10-16T13:21:21;10.00;;;2.60;;
16137;SDS011;8174;43.550;5.206;2022-10-16T13:23:54;5.20;;;2.85;;
16137;SDS011;8174;43.550;5.206;2022-10-16T13:26:27;5.47;;;2.80;;
16137;SDS011;8174;43.550;5.206;2022-10-16T13:28:58;5.47;;;2.70;;
16137;SDS011;8174;43.550;5.206;2022-10-16T13:31:26;7.13;;;3.00;;
16137;SDS011;8174;43.550;5.206;2022-10-16T13:33:57;5.43;;;2.55;;
16137;SDS011;8174;43.550;5.206;2022-10-16T13:36:26;6.53;;;2.65;;
16137;SDS011;8174;43.550;5.206;2022-10-16T13:39:00;6.22;;;2.80;;
16137;SDS011;8174;43.550;5.206;2022-10-16T13:41:28;6.72;;;2.92;;
16137;SDS011;8174;43.550;5.206;2022-10-16T13:43:55;8.60;;;2.72;;
16137;SDS011;8174;43.550;5.206;2022-10-16T13:46:24;6.28;;;3.15;;
16137;SDS011;8174;43.550;5.206;2022-10-16T13:48:59;3.60;;;2.55;;
16137;SDS011;8174;43.550;5.206;2022-10-16T13:51:26;5.47;;;2.80;;
16137;SDS011;8174;43.550;5.206;2022-10-16T13:53:54;4.47;;;2.78;;
16137;SDS011;8174;43.550;5.206;2022-10-16T13:56:25;5.22;;;2.55;;
16137;SDS011;8174;43.550;5.206;2022-10-16T13:58:59;5.45;;;2.67;;
16137;SDS011;8174;43.550;5.206;2022-10-16T14:01:27;4.75;;;2.80;;
16137;SDS011;8174;43.550;5.206;2022-10-16T14:04:01;4.65;;;2.90;;
16137;SDS011;8174;43.550;5.206;2022-10-16T14:06:30;5.97;;;2.60;;
16137;SDS011;8174;43.550;5.206;2022-10-16T14:08:59;4.82;;;2.33;;
16137;SDS011;8174;43.550;5.206;2022-10-16T14:11:28;9.07;;;3.08;;
16137;SDS011;8174;43.550;5.206;2022-10-16T14:13:56;7.85;;;2.88;;
16137;SDS011;8174;43.550;5.206;2022-10-16T14:16:24;8.40;;;2.85;;
16137;SDS011;8174;43.550;5.206;2022-10-16T14:18:55;4.35;;;2.70;;
16137;SDS011;8174;43.550;5.206;2022-10-16T14:21:25;7.20;;;2.88;;
16137;SDS011;8174;43.550;5.206;2022-10-16T14:23:53;8.02;;;2.85;;
16137;SDS011;8174;43.550;5.206;2022-10-16T14:26:22;5.03;;;3.20;;
16137;SDS011;8174;43.550;5.206;2022-10-16T14:29:00;6.22;;;2.80;;
16137;SDS011;8174;43.550;5.206;2022-10-16T14:31:29;5.25;;;2.83;;
16137;SDS011;8174;43.550;5.206;2022-10-16T14:33:57;6.68;;;3.00;;
16137;SDS011;8174;43.550;5.206;2022-10-16T14:36:26;7.53;;;2.78;;
16137;SDS011;8174;43.550;5.206;2022-10-16T14:38:58;6.00;;;2.70;;
16137;SDS011;8174;43.550;5.206;2022-10-16T14:41:27;6.25;;;2.75;;
16137;SDS011;8174;43.550;5.206;2022-10-16T14:43:55;6.18;;;2.65;;
16137;SDS011;8174;43.550;5.206;2022-10-16T14:46:28;6.32;;;2.97;;
16137;SDS011;8174;43.550;5.206;2022-10-16T14:48:57;6.38;;;3.00;;
16137;SDS011;8174;43.550;5.206;2022-10-16T14:51:27;4.45;;;2.63;;
16137;SDS011;8174;43.550;5.206;2022-10-16T14:53:55;5.38;;;2.90;;
16137;SDS011;8174;43.550;5.206;2022-10-16T14:56:24;5.72;;;2.80;;
16137;SDS011;8174;43.550;5.206;2022-10-16T14:58:52;8.07;;;2.40;;
16137;SDS011;8174;43.550;5.206;2022-10-16T15:01:19;3.63;;;2.42;;
16137;SDS011;8174;43.550;5.206;2022-10-16T15:03:47;5.38;;;2.55;;
16137;SDS011;8174;43.550;5.206;2022-10-16T15:06:17;6.95;;;2.80;;
16137;SDS011;8174;43.550;5.206;2022-10-16T15:08:46;5.03;;;3.10;;
16137;SDS011;8174;43.550;5.206;2022-10-16T15:11:14;9.73;;;2.70;;
16137;SDS011;8174;43.550;5.206;2022-10-16T15:13:42;5.25;;;2.50;;
16137;SDS011;8174;43.550;5.206;2022-10-16T15:16:10;7.15;;;2.50;;
16137;SDS011;8174;43.550;5.206;2022-10-16T15:18:39;7.03;;;2.60;;
16137;SDS011;8174;43.550;5.206;2022-10-16T15:21:06;5.55;;;2.70;;